Time;durP1;ratioP1;P1;durP2;ratioP2;P2;SDS_P1;SDS_P2;PMS_P1;PMS_P2;Temp;Humidity;BMP_temperature;BMP_pressure;BME280_temperature;BME280_humidity;BME280_pressure;Samples;Min_cycle;Max_cycle;Signal;HPM_P1;HPM_P2
2022/05/23 00:02:13;;;;;;;37.72;17.95;;;;;;;15.98;65.23;100615.25;5093372;28;20048;-46
2022/05/23 00:04:39;;;;;;;38.22;16.38;;;;;;;15.95;65.56;100605.69;5092935;28;20024;-43
2022/05/23 00:07:15;;;;;;;35.70;17.95;;;;;;;15.95;65.64;100610.91;5093297;28;20032;-45
2022/05/23 00:09:41;;;;;;;34.45;16.67;;;;;;;15.88;66.15;100609.13;5093326;28;20028;-42
2022/05/23 00:12:07;;;;;;;28.90;16.30;;;;;;;15.88;66.26;100612.59;5092956;28;20020;-41
2022/05/23 00:14:32;;;;;;;32.38;16.02;;;;;;;15.84;65.87;100609.97;5093196;28;20052;-43
2022/05/23 00:16:58;;;;;;;35.60;17.40;;;;;;;15.83;66.63;100616.03;5093073;28;20067;-46
2022/05/23 00:19:24;;;;;;;33.28;16.02;;;;;;;15.85;66.32;100616.91;5092834;28;20024;-45
2022/05/23 00:21:50;;;;;;;37.10;16.98;;;;;;;15.80;65.91;100616.84;5092700;28;20478;-42
2022/05/23 00:24:18;;;;;;;34.75;15.98;;;;;;;15.76;66.28;100609.91;5093500;28;20099;-42
2022/05/23 00:26:47;;;;;;;28.42;15.77;;;;;;;15.73;65.64;100609.91;5092623;28;20016;-42
2022/05/23 00:29:13;;;;;;;35.45;15.93;;;;;;;15.70;66.39;100607.28;5093101;28;20027;-42
2022/05/23 00:35:17;;;;;;;31.15;16.50;;;;;;;15.66;66.78;100601.22;5093029;28;20394;-42
2022/05/23 00:37:07;;;;;;;30.98;15.32;;;;;;;15.55;68.01;100595.97;5093102;28;20054;-42
2022/05/23 00:39:32;;;;;;;31.48;16.73;;;;;;;15.52;68.06;100595.97;5093114;28;20454;-45
2022/05/23 00:44:42;;;;;;;31.90;15.98;;;;;;;15.46;68.34;100582.94;5092872;28;20039;-43
2022/05/23 00:47:19;;;;;;;29.15;16.33;;;;;;;15.46;67.33;100588.13;5092336;28;20028;-42
2022/05/23 00:49:45;;;;;;;35.20;16.58;;;;;;;15.49;67.53;100590.72;5092550;28;20436;-45
2022/05/23 00:52:16;;;;;;;27.40;15.48;;;;;;;15.48;67.74;100579.47;5092936;28;20467;-42
2022/05/23 00:54:44;;;;;;;31.33;15.40;;;;;;;15.50;67.90;100576.03;5092292;28;20361;-43
2022/05/23 00:57:15;;;;;;;32.17;15.20;;;;;;;15.48;67.65;100561.31;5092554;28;20077;-44
2022/05/23 00:59:41;;;;;;;37.53;16.92;;;;;;;15.45;67.56;100556.09;5092682;28;20028;-44
2022/05/23 01:02:10;;;;;;;31.15;15.90;;;;;;;15.43;67.35;100555.22;5092339;28;20020;-43
2022/05/23 01:04:37;;;;;;;41.85;15.77;;;;;;;15.40;67.12;100549.13;5092481;28;20420;-43
2022/05/23 01:07:02;;;;;;;30.25;14.82;;;;;;;15.41;67.28;100556.06;5092678;28;20055;-42
2022/05/23 01:09:27;;;;;;;33.28;16.98;;;;;;;15.39;68.23;100558.66;5095929;28;20059;-42
2022/05/23 01:11:59;;;;;;;30.58;15.70;;;;;;;15.38;67.39;100564.72;5096270;28;20479;-42
2022/05/23 01:14:25;;;;;;;30.92;14.90;;;;;;;15.38;67.29;100569.91;5097183;28;20085;-45
2022/05/23 01:16:50;;;;;;;29.90;14.73;;;;;;;15.36;68.40;100565.56;5095985;28;20024;-42
2022/05/23 01:19:16;;;;;;;30.30;14.77;;;;;;;15.37;67.04;100569.91;5096702;28;20024;-42
2022/05/23 01:21:59;;;;;;;34.75;16.60;;;;;;;15.35;66.96;100576.81;5096507;28;20038;-43
2022/05/23 01:24:32;;;;;;;30.70;15.23;;;;;;;15.26;68.29;100573.31;5096597;28;20027;-46
2022/05/23 01:26:58;;;;;;;29.60;15.48;;;;;;;15.17;69.15;100562.00;5096047;28;20032;-42
2022/05/23 01:29:24;;;;;;;34.75;17.27;;;;;;;15.07;69.51;100568.88;5096128;28;20107;-42
2022/05/23 01:31:49;;;;;;;42.53;17.13;;;;;;;15.01;69.75;100555.84;5096074;28;20111;-42
2022/05/23 01:34:14;;;;;;;33.58;16.92;;;;;;;14.95;70.67;100557.53;5096495;28;20068;-42
2022/05/23 01:36:40;;;;;;;39.80;16.77;;;;;;;14.89;70.59;100552.31;5095722;28;20161;-42
2022/05/23 01:39:05;;;;;;;30.00;16.90;;;;;;;14.78;70.83;100549.63;5096049;28;20035;-42
2022/05/23 01:41:30;;;;;;;42.28;17.90;;;;;;;14.73;70.99;100551.31;5096244;28;20041;-46
2022/05/23 01:43:56;;;;;;;33.15;17.67;;;;;;;14.64;71.27;100556.41;5095507;28;20489;-46
2022/05/23 01:46:22;;;;;;;35.42;17.80;;;;;;;14.54;71.59;100552.88;5096071;28;20024;-47
2022/05/23 01:48:47;;;;;;;36.15;18.70;;;;;;;14.46;72.62;100552.78;5095952;28;20517;-47
2022/05/23 01:51:13;;;;;;;38.75;18.20;;;;;;;14.36;73.11;100550.97;5095676;28;20099;-45
2022/05/23 01:53:38;;;;;;;41.83;18.63;;;;;;;14.35;72.93;100554.41;5095392;28;20048;-43
2022/05/23 01:56:07;;;;;;;33.70;19.42;;;;;;;14.31;72.56;100561.28;5096033;28;20028;-45
2022/05/23 02:01:17;;;;;;;33.38;18.98;;;;;;;14.32;73.10;100555.25;5096016;28;20082;-47
2022/05/23 02:03:44;;;;;;;31.92;18.70;;;;;;;14.29;73.47;100554.34;5095682;28;20024;-42
2022/05/23 02:06:10;;;;;;;;;;;;;;;14.37;70.42;100547.53;5095689;28;20035;-47
2022/05/23 02:08:36;;;;;;;34.97;18.83;;;;;;;14.26;73.62;100539.63;5095572;28;19912;-46
2022/05/23 02:11:01;;;;;;;35.08;18.95;;;;;;;14.22;74.21;100530.09;5095714;28;20395;-45
2022/05/23 02:13:26;;;;;;;41.13;19.88;;;;;;;14.19;74.43;100539.56;5095274;28;20471;-47
2022/05/23 02:15:52;;;;;;;38.25;20.05;;;;;;;14.14;74.43;100532.63;5095220;28;20028;-45
2022/05/23 02:18:17;;;;;;;36.33;19.63;;;;;;;14.13;74.16;100536.06;5094642;28;20372;-46
2022/05/23 02:20:42;;;;;;;35.50;19.00;;;;;;;14.12;74.62;100529.13;5095203;28;20028;-43
2022/05/23 02:23:08;;;;;;;36.42;19.42;;;;;;;14.18;74.40;100530.03;5095228;28;20036;-46
2022/05/23 02:25:33;;;;;;;43.35;19.80;;;;;;;14.18;74.96;100530.03;5095089;28;20472;-46
2022/05/23 02:27:58;;;;;;;43.42;20.00;;;;;;;14.20;74.59;100529.22;5095005;28;20378;-45
2022/05/23 02:30:24;;;;;;;37.50;18.83;;;;;;;14.18;73.93;100527.44;5095452;28;20058;-45
2022/05/23 02:32:50;;;;;;;34.50;18.98;;;;;;;14.20;74.13;100523.16;5094453;28;20391;-44
2022/05/23 02:35:17;;;;;;;38.58;19.52;;;;;;;14.15;73.91;100521.41;5094947;28;20100;-45
2022/05/23 02:37:43;;;;;;;38.25;19.50;;;;;;;14.16;73.94;100517.97;5095103;28;20023;-45
2022/05/23 02:40:10;;;;;;;38.58;19.35;;;;;;;14.16;74.45;100517.06;5094804;28;20028;-47
2022/05/23 02:42:35;;;;;;;39.05;18.90;;;;;;;14.18;75.10;100506.72;5094996;28;20028;-46
2022/05/23 02:45:01;;;;;;;39.13;20.65;;;;;;;14.16;75.17;100509.31;5094871;28;20391;-42
2022/05/23 02:47:27;;;;;;;33.92;20.33;;;;;;;14.20;74.82;100507.63;5094474;28;20057;-47
2022/05/23 02:49:52;;;;;;;40.25;20.58;;;;;;;14.21;74.14;100501.59;5094391;28;20035;-46
2022/05/23 02:52:18;;;;;;;39.45;21.20;;;;;;;14.22;74.17;100503.31;5094952;28;20048;-46
2022/05/23 02:54:43;;;;;;;49.17;21.30;;;;;;;14.23;73.54;100489.47;5094290;28;20023;-45
2022/05/23 02:57:08;;;;;;;37.15;22.00;;;;;;;14.24;74.38;100475.69;5094600;28;20044;-45
2022/05/23 02:59:33;;;;;;;36.42;20.45;;;;;;;14.23;74.04;100473.94;5094931;28;20089;-46
2022/05/23 03:04:43;;;;;;;42.90;20.85;;;;;;;14.10;74.38;100450.53;5094522;28;20035;-47
2022/05/23 03:07:09;;;;;;;40.67;21.48;;;;;;;14.06;75.54;100430.63;5094821;28;20099;-46
2022/05/23 03:09:34;;;;;;;45.05;22.70;;;;;;;14.06;76.05;100428.03;5094188;28;20055;-47
2022/05/23 03:12:00;;;;;;;36.97;21.42;;;;;;;14.05;76.30;100421.09;5094127;28;20043;-46
2022/05/23 03:14:26;;;;;;;40.03;21.92;;;;;;;13.98;75.90;100415.00;5094000;28;20032;-46
2022/05/23 03:16:52;;;;;;;38.35;21.77;;;;;;;13.99;75.90;100405.50;5094008;28;20107;-43
2022/05/23 03:19:18;;;;;;;42.42;22.70;;;;;;;13.97;75.80;100402.91;5094606;28;20030;-42
2022/05/23 03:27:11;;;;;;;40.67;22.50;;;;;;;14.01;76.80;100403.81;5094458;28;20177;-45
2022/05/23 03:29:36;;;;;;;38.80;21.88;;;;;;;13.99;75.39;100408.09;5093876;28;20111;-43
2022/05/23 03:32:02;;;;;;;51.25;23.65;;;;;;;13.99;75.04;100405.50;5093137;28;20051;-47
2022/05/23 03:34:27;;;;;;;46.15;22.85;;;;;;;13.97;76.41;100389.94;5094202;28;20051;-46
2022/05/23 03:36:52;;;;;;;42.58;23.10;;;;;;;13.93;76.26;100380.44;5093251;28;20036;-43
2022/05/23 03:39:18;;;;;;;40.05;22.80;;;;;;;13.88;77.34;100382.13;5093857;28;20028;-42
2022/05/23 03:41:43;;;;;;;41.60;22.98;;;;;;;13.89;76.66;100368.31;5093654;28;20490;-48
2022/05/23 03:44:08;;;;;;;47.08;23.08;;;;;;;13.80;77.02;100376.88;5093603;28;20062;-43
2022/05/23 03:46:35;;;;;;;44.30;23.38;;;;;;;13.81;77.86;100376.03;5093588;28;20039;-41
2022/05/23 03:49:01;;;;;;;41.60;22.73;;;;;;;13.77;77.40;100369.06;5093781;28;20456;-42
2022/05/23 03:51:30;;;;;;;39.33;23.38;;;;;;;13.75;77.17;100368.19;5093361;28;20544;-45
2022/05/23 03:53:55;;;;;;;40.03;22.92;;;;;;;13.77;77.61;100363.88;5093080;28;20077;-43
2022/05/23 03:56:21;;;;;;;46.17;24.20;;;;;;;13.78;78.03;100356.97;5093549;28;20078;-45
2022/05/23 03:58:46;;;;;;;44.38;24.15;;;;;;;13.78;78.09;100351.81;5092819;28;20020;-47
2022/05/23 04:01:14;;;;;;;40.17;23.08;;;;;;;13.79;78.19;100351.81;5093566;28;20153;-43
2022/05/23 04:03:40;;;;;;;44.47;24.67;;;;;;;13.86;78.50;100354.47;5092967;28;20153;-45
2022/05/23 04:06:06;;;;;;;45.20;24.98;;;;;;;13.90;78.23;100356.22;5093172;28;20111;-41
2022/05/23 04:08:32;;;;;;;49.88;24.60;;;;;;;13.92;78.31;100349.34;5093574;28;20483;-42
2022/05/23 04:10:57;;;;;;;46.13;25.38;;;;;;;13.94;78.08;100345.00;5092745;28;20027;-43
2022/05/23 04:13:22;;;;;;;53.65;25.35;;;;;;;13.88;78.19;100340.66;5093362;28;20028;-44
2022/05/23 04:15:48;;;;;;;44.85;25.00;;;;;;;13.90;79.37;100349.28;5093225;28;20035;-43
2022/05/23 04:18:13;;;;;;;48.67;25.35;;;;;;;13.88;79.33;100335.47;5092717;28;20076;-42
2022/05/23 04:20:39;;;;;;;46.03;25.20;;;;;;;13.85;79.17;100332.00;5092935;28;20078;-45
2022/05/23 04:23:08;;;;;;;46.90;25.17;;;;;;;13.81;80.07;100328.50;5093243;28;20541;-45
2022/05/23 04:25:37;;;;;;;44.90;25.65;;;;;;;13.76;80.13;100325.91;5092663;28;20024;-47
2022/05/23 04:28:02;;;;;;;49.83;26.08;;;;;;;13.74;80.27;100321.56;5092753;28;20645;-46
2022/05/23 04:30:27;;;;;;;57.42;27.55;;;;;;;13.77;79.93;100313.81;5093361;28;20095;-42
2022/05/23 04:35:38;;;;;;;59.75;29.05;;;;;;;13.86;80.60;100316.47;5092848;28;20494;-45
2022/05/23 04:38:03;;;;;;;58.08;27.83;;;;;;;13.92;80.39;100320.84;5092878;28;20032;-46
2022/05/23 04:40:29;;;;;;;47.65;28.40;;;;;;;13.98;80.05;100326.03;5092755;28;20047;-44
2022/05/23 04:42:55;;;;;;;46.00;27.17;;;;;;;14.02;80.09;100332.13;5092667;28;20146;-45
2022/05/23 04:45:20;;;;;;;54.50;27.30;;;;;;;14.06;80.21;100324.38;5093178;28;20040;-46
2022/05/23 04:50:30;;;;;;;57.35;29.95;;;;;;;14.17;80.45;100306.31;5093184;28;20043;-42
2022/05/23 04:52:57;;;;;;;57.25;29.40;;;;;;;14.22;81.09;100298.56;5091863;28;20384;-42
2022/05/23 04:55:23;;;;;;;54.45;29.58;;;;;;;14.28;80.41;100301.16;5092878;28;20077;-42
2022/05/23 04:57:48;;;;;;;51.50;29.00;;;;;;;14.30;79.84;100297.72;5092776;28;20052;-47
2022/05/23 05:00:20;;;;;;;47.33;29.75;;;;;;;14.35;79.75;100299.50;5092501;28;20031;-46
2022/05/23 05:02:47;;;;;;;57.42;30.15;;;;;;;14.40;78.92;100303.84;5092489;28;20104;-46
2022/05/23 05:05:13;;;;;;;52.90;30.90;;;;;;;14.44;79.57;100299.53;5092850;28;20031;-43
2022/05/23 05:07:39;;;;;;;55.17;30.15;;;;;;;14.46;80.03;100292.63;5092037;28;20433;-42
2022/05/23 05:10:05;;;;;;;50.80;30.20;;;;;;;14.46;80.68;100293.50;5092593;28;20491;-47
2022/05/23 05:12:31;;;;;;;52.65;30.27;;;;;;;14.51;80.08;100296.09;5092935;28;20028;-48
2022/05/23 05:14:57;;;;;;;52.13;30.58;;;;;;;14.56;80.27;100288.34;5091991;28;20043;-44
2022/05/23 05:17:22;;;;;;;60.28;31.67;;;;;;;14.63;80.79;100278.03;5092399;28;20086;-47
2022/05/23 05:19:47;;;;;;;59.45;32.35;;;;;;;14.68;80.46;100278.06;5092290;28;20036;-42
2022/05/23 05:22:13;;;;;;;54.70;32.08;;;;;;;14.79;80.62;100259.94;5092052;28;20035;-47
2022/05/23 05:24:38;;;;;;;56.92;33.25;;;;;;;14.89;80.15;100255.66;5092366;28;20024;-47
2022/05/23 05:27:04;;;;;;;63.03;32.97;;;;;;;15.00;80.10;100248.75;5092605;28;20017;-48
2022/05/23 05:29:29;;;;;;;50.45;32.67;;;;;;;15.13;79.04;100255.69;5092148;28;20059;-42
2022/05/23 05:32:09;;;;;;;55.05;32.72;;;;;;;15.24;79.34;100253.09;5092237;28;20012;-44
2022/05/23 05:34:59;;;;;;;52.03;33.80;;;;;;;15.39;77.99;100247.06;5092559;28;20089;-42
2022/05/23 05:37:33;;;;;;;56.47;33.15;;;;;;;15.46;78.04;100240.97;5091839;28;20036;-43
2022/05/23 05:40:02;;;;;;;54.47;32.88;;;;;;;15.60;76.76;100237.53;5092332;28;20036;-48
2022/05/23 05:42:36;;;;;;;56.65;32.90;;;;;;;15.75;75.57;100234.91;5091891;28;20107;-43
2022/05/23 05:45:10;;;;;;;56.55;31.13;;;;;;;15.79;74.79;100236.63;5091911;28;20380;-47
2022/05/23 05:47:39;;;;;;;55.47;32.17;;;;;;;15.84;74.92;100231.47;5092642;28;20091;-43
2022/05/23 05:50:15;;;;;;;55.70;32.72;;;;;;;15.92;75.10;100227.13;5091618;28;20107;-45
2022/05/23 05:52:40;;;;;;;52.90;31.77;;;;;;;15.99;74.63;100225.34;5091728;28;20056;-45
2022/05/23 05:55:07;;;;;;;50.00;30.13;;;;;;;16.03;74.41;100216.69;5094983;28;20435;-42
2022/05/23 05:57:33;;;;;;;52.25;31.65;;;;;;;16.12;74.77;100214.03;5095370;28;20190;-46
2022/05/23 05:59:59;;;;;;;48.03;30.15;;;;;;;16.21;74.69;100212.31;5095408;28;20048;-42
2022/05/23 06:02:25;;;;;;;47.78;29.83;;;;;;;16.24;73.68;100205.34;5096013;28;20039;-42
2022/05/23 06:04:50;;;;;;;49.00;29.15;;;;;;;16.33;73.61;100212.22;5095028;28;20027;-47
2022/05/23 06:12:53;;;;;;;47.28;29.77;;;;;;;16.68;72.14;100213.81;5095248;28;20117;-45
2022/05/23 06:15:18;;;;;;;54.15;30.45;;;;;;;16.73;71.21;100216.38;5095704;28;20047;-46
2022/05/23 06:17:44;;;;;;;49.85;30.00;;;;;;;16.77;71.17;100211.16;5094780;28;20032;-46
2022/05/23 06:20:12;;;;;;;48.58;29.70;;;;;;;16.90;71.00;100211.97;5095311;28;20513;-47
2022/05/23 06:22:37;;;;;;;;;;;;;;;17.05;71.13;100202.31;5096047;28;20039;-42
2022/05/23 06:25:02;;;;;;;46.57;27.80;;;;;;;17.09;69.71;100191.88;5094855;28;19911;-43
2022/05/23 06:27:28;;;;;;;45.38;27.77;;;;;;;17.15;69.00;100190.09;5095260;28;20074;-47
2022/05/23 06:29:54;;;;;;;46.78;27.48;;;;;;;17.25;69.26;100183.94;5095143;28;20028;-42
2022/05/23 06:32:20;;;;;;;48.03;27.92;;;;;;;17.38;69.29;100184.69;5094796;28;20101;-41
2022/05/23 06:34:46;;;;;;;45.88;27.40;;;;;;;17.57;68.53;100185.38;5094700;28;20024;-45
2022/05/23 06:37:11;;;;;;;47.55;28.80;;;;;;;17.65;69.03;100178.34;5095401;28;20024;-49
2022/05/23 06:39:36;;;;;;;48.65;28.27;;;;;;;17.82;66.90;100174.69;5094863;28;20434;-45
2022/05/23 06:42:02;;;;;;;44.70;28.80;;;;;;;17.92;67.43;100165.88;5094471;28;20034;-42
2022/05/23 06:44:27;;;;;;;50.88;28.70;;;;;;;17.99;67.83;100164.97;5095211;28;20024;-46
2022/05/23 06:46:52;;;;;;;45.10;27.52;;;;;;;18.08;66.46;100162.25;5094157;28;20067;-44
2022/05/23 06:49:18;;;;;;;42.95;26.90;;;;;;;18.06;65.00;100166.63;5094671;28;20027;-44
2022/05/23 06:51:48;;;;;;;44.53;26.42;;;;;;;18.07;65.13;100173.56;5094687;28;20464;-42
2022/05/23 06:54:15;;;;;;;41.58;26.48;;;;;;;18.03;65.14;100176.22;5094205;28;20051;-49
2022/05/23 06:56:42;;;;;;;51.33;25.08;;;;;;;18.08;64.13;100172.66;5094487;28;20032;-47
2022/05/23 06:59:09;;;;;;;43.65;26.88;;;;;;;18.18;64.74;100175.16;5094950;28;20028;-48
2022/05/23 07:01:35;;;;;;;48.58;27.27;;;;;;;18.27;64.02;100172.47;5092208;28;20043;-47
2022/05/23 07:04:01;;;;;;;44.15;26.10;;;;;;;18.45;64.07;100175.69;5094400;28;20024;-48
2022/05/23 07:14:38;;;;;;;40.63;23.00;;;;;;;18.25;64.26;100169.00;5093738;28;20047;-47
2022/05/23 07:17:05;;;;;;;38.58;22.75;;;;;;;18.34;63.97;100171.47;5093929;28;20032;-46
2022/05/23 07:19:31;;;;;;;35.35;21.70;;;;;;;18.62;64.23;100168.50;5094607;28;20509;-45
2022/05/23 07:21:59;;;;;;;40.05;21.90;;;;;;;18.71;63.33;100176.19;5093482;28;20531;-47
2022/05/23 07:24:26;;;;;;;36.85;20.60;;;;;;;18.71;62.96;100177.94;5094143;28;20150;-45
2022/05/23 07:26:51;;;;;;;36.05;20.55;;;;;;;18.80;62.02;100171.69;5094028;28;20422;-45
2022/05/23 07:29:17;;;;;;;34.03;20.45;;;;;;;18.84;61.95;100162.97;5093900;28;20482;-47
2022/05/23 07:31:42;;;;;;;41.58;20.75;;;;;;;18.85;61.34;100162.06;5093991;28;20028;-45
2022/05/23 07:34:07;;;;;;;35.67;20.00;;;;;;;18.82;61.33;100169.94;5094159;28;20024;-48
2022/05/23 07:36:32;;;;;;;39.80;21.05;;;;;;;18.80;62.15;100156.03;5093393;28;20078;-47
2022/05/23 07:38:58;;;;;;;35.75;19.58;;;;;;;18.76;63.26;100171.75;5093764;28;20050;-44
2022/05/23 07:41:24;;;;;;;41.17;20.55;;;;;;;18.81;63.76;100165.59;5093964;28;20028;-45
2022/05/23 07:43:49;;;;;;;44.40;20.45;;;;;;;18.80;64.33;100166.47;5092889;28;20083;-44
2022/05/23 07:46:15;;;;;;;31.17;19.30;;;;;;;18.84;62.36;100163.81;5094062;28;20070;-43
2022/05/23 07:48:46;;;;;;;35.45;17.48;;;;;;;18.85;62.51;100169.88;5093404;28;20031;-42
2022/05/23 07:51:13;;;;;;;34.72;17.08;;;;;;;18.95;63.23;100163.66;5093910;28;20463;-42
2022/05/23 08:01:52;;;;;;;32.80;17.23;;;;;;;19.54;60.49;100154.84;5093383;28;20497;-44
2022/05/23 08:04:19;;;;;;;36.25;17.38;;;;;;;19.64;59.16;100151.16;5092946;28;20020;-45
2022/05/23 08:06:45;;;;;;;31.57;13.87;;;;;;;19.72;57.02;100143.16;5093287;28;20028;-43
2022/05/23 08:09:10;;;;;;;34.25;11.60;;;;;;;20.05;57.40;100141.66;5093335;28;20280;-45
2022/05/23 08:11:39;;;;;;;23.73;13.60;;;;;;;20.34;55.22;100136.69;5092730;28;20024;-44
2022/05/23 08:14:04;;;;;;;36.15;14.63;;;;;;;20.25;54.89;100137.75;5093377;28;20035;-48
2022/05/23 08:16:30;;;;;;;28.65;12.93;;;;;;;20.26;56.47;100123.78;5093111;28;20028;-45
2022/05/23 08:18:55;;;;;;;44.38;14.90;;;;;;;20.37;55.90;100119.16;5092188;28;20468;-46
2022/05/23 08:21:21;;;;;;;25.65;13.50;;;;;;;20.37;54.41;100116.56;5093166;28;20020;-46
2022/05/23 08:23:46;;;;;;;25.80;13.02;;;;;;;20.46;56.57;100109.38;5093172;28;20020;-46
2022/05/23 08:26:12;;;;;;;34.30;13.50;;;;;;;20.44;55.60;100106.78;5092579;28;20054;-47
2022/05/23 08:28:39;;;;;;;28.05;13.18;;;;;;;20.46;56.46;100104.13;5093048;28;20024;-42
2022/05/23 08:31:04;;;;;;;28.50;14.60;;;;;;;20.50;56.47;100105.78;5092466;28;20027;-46
2022/05/23 08:33:29;;;;;;;24.45;14.48;;;;;;;20.44;56.58;100103.28;5092790;28;20028;-44
2022/05/23 08:35:54;;;;;;;28.20;13.90;;;;;;;20.39;56.75;100114.75;5092877;28;20012;-45
2022/05/23 08:38:20;;;;;;;26.20;13.15;;;;;;;20.29;55.28;100108.00;5092691;28;20028;-47
2022/05/23 08:41:04;;;;;;;31.00;13.80;;;;;;;20.27;55.89;100101.94;5092575;28;20066;-43
2022/05/23 08:43:39;;;;;;;26.98;13.55;;;;;;;20.28;55.88;100100.19;5093179;28;20032;-45
2022/05/23 08:46:07;;;;;;;33.45;14.40;;;;;;;20.19;56.86;100085.53;5092327;28;20553;-46
2022/05/23 08:49:20;;;;;;;34.05;15.70;;;;;;;20.23;56.51;100074.09;5092957;28;20023;-43
2022/05/23 08:52:02;;;;;;;28.77;15.10;;;;;;;20.16;55.94;100075.16;5070421;28;20040;-47
2022/05/23 08:54:46;;;;;;;31.75;15.13;;;;;;;20.19;57.19;100067.22;5092388;28;20052;-42
2022/05/23 08:57:23;;;;;;;28.27;15.55;;;;;;;20.19;57.07;100062.88;5093034;28;20029;-45
2022/05/23 08:59:54;;;;;;;35.10;15.20;;;;;;;20.30;56.58;100070.47;5092200;28;20035;-47
2022/05/23 09:02:24;;;;;;;25.85;14.98;;;;;;;20.39;56.79;100067.63;5092637;28;20103;-46
2022/05/23 09:04:56;;;;;;;32.03;14.57;;;;;;;20.47;57.97;100063.97;5092365;28;20028;-43
2022/05/23 09:07:33;;;;;;;28.98;14.38;;;;;;;20.63;58.04;100062.72;5092472;28;20073;-45
2022/05/23 09:10:03;;;;;;;26.10;13.93;;;;;;;20.87;57.40;100050.78;5092585;28;20038;-44
2022/05/23 09:12:29;;;;;;;31.33;13.10;;;;;;;21.09;55.42;100036.28;5093012;28;20020;-45
2022/05/23 09:14:54;;;;;;;23.67;11.88;;;;;;;21.36;54.81;100035.50;5091727;28;20360;-46
2022/05/23 09:17:31;;;;;;;27.88;13.80;;;;;;;21.44;54.97;100034.44;5092638;28;20115;-46
2022/05/23 09:20:40;;;;;;;30.80;14.43;;;;;;;21.79;55.36;100027.31;5092679;28;20081;-46
2022/05/23 09:23:11;;;;;;;29.13;13.27;;;;;;;21.65;53.89;100028.59;5081908;28;20475;-46
2022/05/23 09:25:37;;;;;;;26.73;13.82;;;;;;;21.52;53.14;100030.69;5092522;28;20035;-45
2022/05/23 09:28:11;;;;;;;32.90;15.30;;;;;;;21.40;53.56;100022.31;5092156;28;20048;-47
2022/05/23 09:30:38;;;;;;;30.90;15.55;;;;;;;21.23;54.87;100023.66;5096345;28;20035;-47
2022/05/23 09:33:16;;;;;;;29.30;16.13;;;;;;;21.16;54.63;100027.31;5096442;28;20035;-41
2022/05/23 09:35:41;;;;;;;36.63;16.40;;;;;;;20.97;54.62;100017.34;5095620;28;20353;-41
2022/05/23 09:38:17;;;;;;;37.03;16.50;;;;;;;20.93;56.05;100009.59;5095994;28;20031;-44
2022/05/23 09:40:43;;;;;;;27.52;15.98;;;;;;;20.91;57.09;100001.78;5096315;28;20111;-42
2022/05/23 09:49:13;;;;;;;31.02;16.08;;;;;;;21.51;55.04;99984.41;5095693;28;20279;-42
2022/05/23 09:51:58;;;;;;;29.48;14.98;;;;;;;21.93;54.25;99975.28;5095887;28;20028;-43
2022/05/23 09:54:33;;;;;;;31.08;13.85;;;;;;;22.20;52.16;99970.06;5096065;28;20048;-47
2022/05/23 09:57:02;;;;;;;33.83;14.40;;;;;;;22.15;52.44;99971.97;5094868;28;20032;-41
2022/05/23 09:59:37;;;;;;;28.95;16.50;;;;;;;22.08;52.07;99971.34;5096105;28;20055;-45
2022/05/23 10:02:31;;;;;;;27.58;15.77;;;;;;;22.17;53.26;99959.69;5095884;28;20081;-42
2022/05/23 10:04:57;;;;;;;34.17;17.30;;;;;;;22.24;52.21;99950.69;5095420;28;20051;-41
2022/05/23 10:07:30;;;;;;;31.58;15.32;;;;;;;22.60;52.65;99946.91;5095748;28;20056;-41
2022/05/23 10:10:02;;;;;;;34.13;16.83;;;;;;;23.06;51.14;99944.38;5095093;28;20111;-41
2022/05/23 10:12:28;;;;;;;31.08;14.55;;;;;;;23.71;48.76;99937.56;5095431;28;20455;-46
2022/05/23 10:15:25;;;;;;;28.40;14.18;;;;;;;24.32;47.84;99944.78;5095419;28;20085;-47
2022/05/23 10:18:04;;;;;;;25.70;13.95;;;;;;;24.63;48.85;99940.88;5094676;28;20526;-44
2022/05/23 10:20:37;;;;;;;30.27;16.33;;;;;;;25.25;44.76;99940.72;5095613;28;20028;-45
2022/05/23 10:23:20;;;;;;;41.38;15.55;;;;;;;25.41;43.34;99934.78;5095484;28;20032;-46
2022/05/23 10:26:13;;;;;;;26.38;14.50;;;;;;;26.23;45.19;99929.06;5094604;28;20028;-46
2022/05/23 10:28:52;;;;;;;28.88;13.93;;;;;;;26.77;41.86;99933.41;5095544;28;20031;-46
2022/05/23 10:31:33;;;;;;;30.27;13.13;;;;;;;27.38;40.84;99950.44;5094959;28;20056;-46
2022/05/23 10:34:04;;;;;;;30.83;13.02;;;;;;;27.50;38.76;99945.41;5094886;28;20020;-45
2022/05/23 10:36:30;;;;;;;26.52;11.27;;;;;;;27.89;39.24;99941.47;5095183;28;20039;-42
2022/05/23 10:42:13;;;;;;;28.20;12.50;;;;;;;28.17;37.53;99931.94;5095259;28;20039;-46
2022/05/23 10:45:06;;;;;;;23.67;12.18;;;;;;;28.40;38.73;99934.06;5094345;28;20482;-48
2022/05/23 10:48:06;;;;;;;26.02;11.07;;;;;;;28.83;37.07;99913.88;5094985;28;20110;-46
2022/05/23 10:50:55;;;;;;;27.92;13.60;;;;;;;28.47;37.33;99910.72;5094818;28;20028;-48
2022/05/23 10:53:23;;;;;;;22.00;11.77;;;;;;;28.51;37.00;99900.78;5093940;28;20390;-47
2022/05/23 10:56:18;;;;;;;24.70;10.95;;;;;;;29.44;37.79;99881.78;5094830;28;20020;-46
2022/05/23 10:58:56;;;;;;;23.58;10.95;;;;;;;30.48;34.04;99884.63;5094160;28;20028;-42
2022/05/23 11:01:49;;;;;;;23.52;12.63;;;;;;;30.50;33.71;99877.41;5094497;28;20537;-43
2022/05/23 11:04:36;;;;;;;26.85;11.70;;;;;;;30.80;34.52;99867.41;5094897;28;20085;-44
2022/05/23 11:07:27;;;;;;;24.85;13.07;;;;;;;31.19;32.01;99874.34;5093581;28;20382;-46
2022/05/23 11:10:06;;;;;;;18.88;12.23;;;;;;;30.41;32.34;99870.06;5094217;28;20482;-47
2022/05/23 11:12:51;;;;;;;26.85;12.40;;;;;;;30.15;32.59;99856.75;5094770;28;20028;-45
2022/05/23 11:15:52;;;;;;;20.38;11.45;;;;;;;30.50;33.89;99845.50;5094442;28;20024;-44
2022/05/23 11:18:45;;;;;;;20.42;10.77;;;;;;;32.04;33.10;99827.25;5094488;28;20468;-43
2022/05/23 11:21:25;;;;;;;21.67;11.55;;;;;;;32.60;29.96;99807.84;5093800;28;20026;-44
2022/05/23 11:23:57;;;;;;;24.23;12.02;;;;;;;32.87;28.88;99806.59;5094323;28;20356;-45
2022/05/23 11:26:29;;;;;;;21.45;11.35;;;;;;;34.05;28.55;99800.44;5094240;28;20476;-45
2022/05/23 11:34:59;;;;;;;18.95;9.07;;;;;;;31.16;29.76;99781.41;5093370;28;20062;-43
2022/05/23 11:37:43;;;;;;;18.83;9.73;;;;;;;30.05;31.14;99771.50;5094090;28;20028;-47
2022/05/23 11:40:31;;;;;;;25.90;9.52;;;;;;;29.36;32.46;99768.16;5094203;28;20050;-47
2022/05/23 11:43:00;;;;;;;16.52;9.73;;;;;;;28.63;33.24;99764.00;5088908;28;20115;-43
2022/05/23 11:48:41;;;;;;;19.40;8.05;;;;;;;29.16;32.97;99772.13;5093857;28;20137;-43
2022/05/23 11:51:16;;;;;;;11.90;6.95;;;;;;;29.11;31.16;99759.16;5093181;28;20531;-43
2022/05/23 11:53:57;;;;;;;12.98;6.35;;;;;;;28.61;32.59;99760.56;5093375;28;20082;-46
2022/05/23 11:56:47;;;;;;;13.43;6.53;;;;;;;28.45;34.90;99761.53;5092805;28;20039;-46
2022/05/23 11:59:25;;;;;;;15.10;7.10;;;;;;;27.95;35.13;99746.94;5073501;28;20028;-48
2022/05/23 12:02:08;;;;;;;16.83;6.38;;;;;;;27.46;36.11;99743.63;5072999;28;20025;-48
2022/05/23 12:04:34;;;;;;;11.77;6.05;;;;;;;26.99;37.75;99737.47;5073165;28;20368;-47
2022/05/23 12:07:00;;;;;;;17.65;7.72;;;;;;;26.43;38.10;99734.34;5073236;28;20027;-47
2022/05/23 12:09:35;;;;;;;15.00;7.97;;;;;;;26.05;38.08;99729.34;5072876;28;20388;-48
2022/05/23 12:12:24;;;;;;;18.70;8.35;;;;;;;25.75;38.49;99724.69;5072871;28;20092;-47
2022/05/23 12:14:49;;;;;;;15.18;7.53;;;;;;;25.24;38.87;99725.44;5072845;28;20479;-46
2022/05/23 12:17:34;;;;;;;16.03;6.87;;;;;;;25.12;39.74;99728.69;5072467;28;20029;-47
2022/05/23 12:20:06;;;;;;;13.50;7.35;;;;;;;24.74;40.25;99736.63;5072445;28;20036;-47
2022/05/23 12:22:37;;;;;;;11.25;5.80;;;;;;;24.44;41.56;99727.44;5073001;28;20039;-41
2022/05/23 12:25:08;;;;;;;12.45;6.43;;;;;;;24.25;41.23;99719.53;5072350;28;20432;-46
2022/05/23 12:27:45;;;;;;;12.73;5.35;;;;;;;24.01;42.28;99718.84;5073234;28;20036;-46